sensor_id;sensor_type;location;lat;lon;timestamp;P1;durP1;ratioP1;P2;durP2;ratioP2
13868;SDS011;7004;48.206;16.402;2022-11-28T00:01:21;48.80;;;30.47;;
13868;SDS011;7004;48.206;16.402;2022-11-28T00:04:01;52.33;;;32.20;;
13868;SDS011;7004;48.206;16.402;2022-11-28T00:06:29;50.53;;;30.13;;
13868;SDS011;7004;48.206;16.402;2022-11-28T00:08:58;48.87;;;30.50;;
13868;SDS011;7004;48.206;16.402;2022-11-28T00:11:25;47.17;;;29.37;;
13868;SDS011;7004;48.206;16.402;2022-11-28T00:13:51;43.73;;;29.33;;
13868;SDS011;7004;48.206;16.402;2022-11-28T00:16:19;44.87;;;29.33;;
13868;SDS011;7004;48.206;16.402;2022-11-28T00:18:47;50.47;;;29.10;;
13868;SDS011;7004;48.206;16.402;2022-11-28T00:21:15;53.73;;;29.37;;
13868;SDS011;7004;48.206;16.402;2022-11-28T00:23:43;46.10;;;29.37;;
13868;SDS011;7004;48.206;16.402;2022-11-28T00:26:12;49.57;;;29.80;;
13868;SDS011;7004;48.206;16.402;2022-11-28T00:28:57;50.13;;;29.73;;
13868;SDS011;7004;48.206;16.402;2022-11-28T00:31:26;52.77;;;31.03;;
13868;SDS011;7004;48.206;16.402;2022-11-28T00:33:55;51.73;;;30.83;;
13868;SDS011;7004;48.206;16.402;2022-11-28T00:36:22;48.37;;;29.60;;
13868;SDS011;7004;48.206;16.402;2022-11-28T00:38:49;49.67;;;29.77;;
13868;SDS011;7004;48.206;16.402;2022-11-28T00:41:17;46.07;;;27.53;;
13868;SDS011;7004;48.206;16.402;2022-11-28T00:43:46;45.50;;;28.07;;
13868;SDS011;7004;48.206;16.402;2022-11-28T00:46:14;50.47;;;28.63;;
13868;SDS011;7004;48.206;16.402;2022-11-28T00:48:42;49.07;;;28.63;;
13868;SDS011;7004;48.206;16.402;2022-11-28T00:51:13;43.57;;;27.87;;
13868;SDS011;7004;48.206;16.402;2022-11-28T00:53:43;45.63;;;26.77;;
13868;SDS011;7004;48.206;16.402;2022-11-28T00:56:13;43.80;;;27.03;;
13868;SDS011;7004;48.206;16.402;2022-11-28T00:58:42;39.83;;;25.97;;
13868;SDS011;7004;48.206;16.402;2022-11-28T01:01:16;41.40;;;26.17;;
13868;SDS011;7004;48.206;16.402;2022-11-28T01:03:53;42.20;;;25.40;;
13868;SDS011;7004;48.206;16.402;2022-11-28T01:06:27;41.77;;;25.87;;
13868;SDS011;7004;48.206;16.402;2022-11-28T01:08:58;38.13;;;22.63;;
13868;SDS011;7004;48.206;16.402;2022-11-28T01:11:26;45.37;;;25.07;;
13868;SDS011;7004;48.206;16.402;2022-11-28T01:13:54;43.33;;;24.47;;
13868;SDS011;7004;48.206;16.402;2022-11-28T01:16:21;39.67;;;23.53;;
13868;SDS011;7004;48.206;16.402;2022-11-28T01:18:48;39.53;;;23.83;;
13868;SDS011;7004;48.206;16.402;2022-11-28T01:21:14;40.47;;;23.47;;
13868;SDS011;7004;48.206;16.402;2022-11-28T01:23:41;37.87;;;22.13;;
13868;SDS011;7004;48.206;16.402;2022-11-28T01:26:08;36.93;;;23.03;;
13868;SDS011;7004;48.206;16.402;2022-11-28T01:28:39;40.83;;;21.90;;
13868;SDS011;7004;48.206;16.402;2022-11-28T01:31:06;37.57;;;21.80;;
13868;SDS011;7004;48.206;16.402;2022-11-28T01:33:34;37.67;;;21.73;;
13868;SDS011;7004;48.206;16.402;2022-11-28T01:36:00;37.10;;;21.30;;
13868;SDS011;7004;48.206;16.402;2022-11-28T01:38:27;35.77;;;20.53;;
13868;SDS011;7004;48.206;16.402;2022-11-28T01:40:54;37.07;;;22.23;;
13868;SDS011;7004;48.206;16.402;2022-11-28T01:43:21;38.30;;;22.80;;
13868;SDS011;7004;48.206;16.402;2022-11-28T01:45:48;37.33;;;20.20;;
13868;SDS011;7004;48.206;16.402;2022-11-28T01:48:17;34.40;;;20.10;;
13868;SDS011;7004;48.206;16.402;2022-11-28T01:50:55;36.33;;;19.53;;
13868;SDS011;7004;48.206;16.402;2022-11-28T01:53:30;36.67;;;20.77;;
13868;SDS011;7004;48.206;16.402;2022-11-28T01:56:04;39.17;;;20.90;;
13868;SDS011;7004;48.206;16.402;2022-11-28T01:58:45;39.60;;;20.73;;
13868;SDS011;7004;48.206;16.402;2022-11-28T02:01:16;39.77;;;22.70;;
13868;SDS011;7004;48.206;16.402;2022-11-28T02:03:45;42.63;;;21.30;;
13868;SDS011;7004;48.206;16.402;2022-11-28T02:06:16;39.83;;;22.20;;
13868;SDS011;7004;48.206;16.402;2022-11-28T02:08:45;39.87;;;21.70;;
13868;SDS011;7004;48.206;16.402;2022-11-28T02:23:22;44.67;;;22.83;;
13868;SDS011;7004;48.206;16.402;2022-11-28T02:29:16;39.97;;;21.63;;
13868;SDS011;7004;48.206;16.402;2022-11-28T02:37:32;39.87;;;20.77;;
13868;SDS011;7004;48.206;16.402;2022-11-28T02:51:21;35.27;;;19.10;;
13868;SDS011;7004;48.206;16.402;2022-11-28T02:54:02;34.20;;;19.47;;
13868;SDS011;7004;48.206;16.402;2022-11-28T02:56:33;38.47;;;19.43;;
13868;SDS011;7004;48.206;16.402;2022-11-28T02:59:00;36.50;;;19.20;;
13868;SDS011;7004;48.206;16.402;2022-11-28T03:01:35;35.53;;;18.53;;
13868;SDS011;7004;48.206;16.402;2022-11-28T03:04:07;39.00;;;18.90;;
13868;SDS011;7004;48.206;16.402;2022-11-28T03:10:04;34.60;;;18.53;;
13868;SDS011;7004;48.206;16.402;2022-11-28T03:13:21;33.77;;;19.33;;
13868;SDS011;7004;48.206;16.402;2022-11-28T03:16:13;32.53;;;18.03;;
13868;SDS011;7004;48.206;16.402;2022-11-28T03:24:09;34.13;;;18.20;;
13868;SDS011;7004;48.206;16.402;2022-11-28T03:29:54;32.57;;;17.77;;
13868;SDS011;7004;48.206;16.402;2022-11-28T03:32:32;36.53;;;17.87;;
13868;SDS011;7004;48.206;16.402;2022-11-28T03:35:03;35.47;;;18.60;;
13868;SDS011;7004;48.206;16.402;2022-11-28T03:37:47;35.67;;;18.07;;
13868;SDS011;7004;48.206;16.402;2022-11-28T03:40:20;35.43;;;18.40;;
13868;SDS011;7004;48.206;16.402;2022-11-28T03:43:15;34.43;;;18.73;;
13868;SDS011;7004;48.206;16.402;2022-11-28T03:45:47;33.77;;;18.17;;
13868;SDS011;7004;48.206;16.402;2022-11-28T03:48:23;28.40;;;17.37;;
13868;SDS011;7004;48.206;16.402;2022-11-28T03:51:04;32.07;;;16.53;;
13868;SDS011;7004;48.206;16.402;2022-11-28T03:53:50;29.10;;;17.23;;
13868;SDS011;7004;48.206;16.402;2022-11-28T03:56:29;30.77;;;16.53;;
13868;SDS011;7004;48.206;16.402;2022-11-28T04:02:33;32.47;;;17.27;;
13868;SDS011;7004;48.206;16.402;2022-11-28T04:10:50;32.63;;;16.83;;
13868;SDS011;7004;48.206;16.402;2022-11-28T04:19:40;29.67;;;17.10;;
13868;SDS011;7004;48.206;16.402;2022-11-28T04:22:26;29.93;;;16.87;;
13868;SDS011;7004;48.206;16.402;2022-11-28T04:24:58;31.13;;;17.53;;
13868;SDS011;7004;48.206;16.402;2022-11-28T04:27:36;30.07;;;16.53;;
13868;SDS011;7004;48.206;16.402;2022-11-28T04:30:06;32.33;;;16.87;;
13868;SDS011;7004;48.206;16.402;2022-11-28T04:32:35;29.20;;;16.47;;
13868;SDS011;7004;48.206;16.402;2022-11-28T04:35:08;31.03;;;17.53;;
13868;SDS011;7004;48.206;16.402;2022-11-28T04:37:46;30.53;;;16.57;;
13868;SDS011;7004;48.206;16.402;2022-11-28T04:40:13;32.70;;;17.27;;
13868;SDS011;7004;48.206;16.402;2022-11-28T04:42:43;33.37;;;17.90;;
13868;SDS011;7004;48.206;16.402;2022-11-28T04:45:38;30.97;;;16.10;;
13868;SDS011;7004;48.206;16.402;2022-11-28T04:48:08;29.27;;;15.83;;
13868;SDS011;7004;48.206;16.402;2022-11-28T04:50:42;25.90;;;15.37;;
13868;SDS011;7004;48.206;16.402;2022-11-28T04:53:20;31.17;;;17.20;;
13868;SDS011;7004;48.206;16.402;2022-11-28T04:56:02;30.03;;;16.30;;
13868;SDS011;7004;48.206;16.402;2022-11-28T04:58:39;27.90;;;16.23;;
13868;SDS011;7004;48.206;16.402;2022-11-28T05:01:13;30.97;;;16.57;;
13868;SDS011;7004;48.206;16.402;2022-11-28T05:03:53;27.73;;;16.23;;
13868;SDS011;7004;48.206;16.402;2022-11-28T05:06:24;28.43;;;17.00;;
13868;SDS011;7004;48.206;16.402;2022-11-28T05:08:56;31.23;;;16.30;;
13868;SDS011;7004;48.206;16.402;2022-11-28T05:11:22;30.80;;;16.57;;
13868;SDS011;7004;48.206;16.402;2022-11-28T05:13:49;30.17;;;16.33;;
13868;SDS011;7004;48.206;16.402;2022-11-28T05:16:15;29.53;;;16.97;;
13868;SDS011;7004;48.206;16.402;2022-11-28T05:18:42;32.20;;;16.17;;
13868;SDS011;7004;48.206;16.402;2022-11-28T05:21:08;26.73;;;15.23;;
13868;SDS011;7004;48.206;16.402;2022-11-28T05:23:35;28.83;;;16.53;;
13868;SDS011;7004;48.206;16.402;2022-11-28T05:26:04;28.43;;;16.33;;
13868;SDS011;7004;48.206;16.402;2022-11-28T05:28:43;28.07;;;14.97;;
13868;SDS011;7004;48.206;16.402;2022-11-28T05:31:11;24.30;;;14.53;;
13868;SDS011;7004;48.206;16.402;2022-11-28T05:33:38;23.43;;;14.67;;
13868;SDS011;7004;48.206;16.402;2022-11-28T05:36:05;23.40;;;14.90;;
13868;SDS011;7004;48.206;16.402;2022-11-28T05:38:36;25.73;;;14.20;;
13868;SDS011;7004;48.206;16.402;2022-11-28T05:41:02;27.03;;;15.63;;
13868;SDS011;7004;48.206;16.402;2022-11-28T05:43:29;25.87;;;16.10;;
13868;SDS011;7004;48.206;16.402;2022-11-28T05:45:55;22.57;;;13.07;;
13868;SDS011;7004;48.206;16.402;2022-11-28T05:48:22;24.47;;;13.40;;
13868;SDS011;7004;48.206;16.402;2022-11-28T05:50:49;25.27;;;14.77;;
13868;SDS011;7004;48.206;16.402;2022-11-28T05:53:16;25.40;;;14.67;;
13868;SDS011;7004;48.206;16.402;2022-11-28T05:55:43;26.17;;;14.83;;
13868;SDS011;7004;48.206;16.402;2022-11-28T05:58:10;25.37;;;14.13;;
13868;SDS011;7004;48.206;16.402;2022-11-28T06:00:36;25.90;;;14.13;;
13868;SDS011;7004;48.206;16.402;2022-11-28T06:03:03;27.23;;;15.30;;
13868;SDS011;7004;48.206;16.402;2022-11-28T06:05:30;28.03;;;15.47;;
13868;SDS011;7004;48.206;16.402;2022-11-28T06:07:56;25.70;;;14.93;;
13868;SDS011;7004;48.206;16.402;2022-11-28T06:10:23;27.63;;;16.07;;
13868;SDS011;7004;48.206;16.402;2022-11-28T06:12:49;25.40;;;15.10;;
13868;SDS011;7004;48.206;16.402;2022-11-28T06:15:15;26.80;;;14.40;;
13868;SDS011;7004;48.206;16.402;2022-11-28T06:17:42;26.40;;;15.63;;
13868;SDS011;7004;48.206;16.402;2022-11-28T06:20:08;28.70;;;17.93;;
13868;SDS011;7004;48.206;16.402;2022-11-28T06:22:34;27.83;;;15.40;;
13868;SDS011;7004;48.206;16.402;2022-11-28T06:25:00;30.20;;;15.93;;
13868;SDS011;7004;48.206;16.402;2022-11-28T06:27:26;31.77;;;16.00;;
13868;SDS011;7004;48.206;16.402;2022-11-28T06:29:53;28.50;;;16.03;;
13868;SDS011;7004;48.206;16.402;2022-11-28T06:32:19;27.13;;;15.73;;
13868;SDS011;7004;48.206;16.402;2022-11-28T06:34:45;25.60;;;14.70;;
13868;SDS011;7004;48.206;16.402;2022-11-28T06:37:11;26.40;;;14.70;;
13868;SDS011;7004;48.206;16.402;2022-11-28T06:39:37;27.77;;;15.23;;
13868;SDS011;7004;48.206;16.402;2022-11-28T06:42:03;25.23;;;14.97;;
13868;SDS011;7004;48.206;16.402;2022-11-28T06:44:29;28.13;;;14.80;;
13868;SDS011;7004;48.206;16.402;2022-11-28T06:46:56;29.30;;;15.27;;
13868;SDS011;7004;48.206;16.402;2022-11-28T06:49:22;30.10;;;16.20;;
13868;SDS011;7004;48.206;16.402;2022-11-28T06:51:48;35.13;;;19.53;;
13868;SDS011;7004;48.206;16.402;2022-11-28T06:54:14;31.63;;;17.40;;
13868;SDS011;7004;48.206;16.402;2022-11-28T06:56:40;31.50;;;16.27;;
13868;SDS011;7004;48.206;16.402;2022-11-28T06:59:06;30.00;;;16.13;;
13868;SDS011;7004;48.206;16.402;2022-11-28T07:01:35;28.53;;;17.30;;
13868;SDS011;7004;48.206;16.402;2022-11-28T07:04:01;30.50;;;16.67;;
13868;SDS011;7004;48.206;16.402;2022-11-28T07:06:27;26.03;;;14.60;;
13868;SDS011;7004;48.206;16.402;2022-11-28T07:08:56;31.83;;;16.37;;
13868;SDS011;7004;48.206;16.402;2022-11-28T07:11:24;27.13;;;14.93;;
13868;SDS011;7004;48.206;16.402;2022-11-28T07:13:53;28.87;;;15.17;;
13868;SDS011;7004;48.206;16.402;2022-11-28T07:16:25;27.73;;;15.20;;
13868;SDS011;7004;48.206;16.402;2022-11-28T07:18:54;29.30;;;15.37;;
13868;SDS011;7004;48.206;16.402;2022-11-28T07:21:21;31.77;;;16.93;;
13868;SDS011;7004;48.206;16.402;2022-11-28T07:23:48;29.70;;;15.57;;
13868;SDS011;7004;48.206;16.402;2022-11-28T07:26:15;25.03;;;15.70;;
13868;SDS011;7004;48.206;16.402;2022-11-28T07:28:44;27.30;;;16.27;;
13868;SDS011;7004;48.206;16.402;2022-11-28T07:31:12;28.67;;;16.53;;
13868;SDS011;7004;48.206;16.402;2022-11-28T07:33:45;28.50;;;15.80;;
13868;SDS011;7004;48.206;16.402;2022-11-28T07:36:14;29.53;;;16.03;;
13868;SDS011;7004;48.206;16.402;2022-11-28T07:38:46;31.23;;;16.53;;
13868;SDS011;7004;48.206;16.402;2022-11-28T07:41:15;28.50;;;16.47;;
13868;SDS011;7004;48.206;16.402;2022-11-28T07:43:42;32.07;;;16.57;;
13868;SDS011;7004;48.206;16.402;2022-11-28T07:46:11;28.47;;;15.80;;
13868;SDS011;7004;48.206;16.402;2022-11-28T07:48:40;31.23;;;17.53;;
13868;SDS011;7004;48.206;16.402;2022-11-28T07:51:09;31.10;;;17.07;;
13868;SDS011;7004;48.206;16.402;2022-11-28T07:53:38;30.30;;;18.33;;
13868;SDS011;7004;48.206;16.402;2022-11-28T07:56:06;28.70;;;17.00;;
13868;SDS011;7004;48.206;16.402;2022-11-28T07:58:38;30.70;;;15.67;;
13868;SDS011;7004;48.206;16.402;2022-11-28T08:01:12;29.67;;;17.47;;
13868;SDS011;7004;48.206;16.402;2022-11-28T08:03:47;31.20;;;16.03;;
13868;SDS011;7004;48.206;16.402;2022-11-28T08:06:15;28.30;;;16.37;;
13868;SDS011;7004;48.206;16.402;2022-11-28T08:08:43;25.97;;;15.47;;
13868;SDS011;7004;48.206;16.402;2022-11-28T08:11:11;23.63;;;14.37;;
13868;SDS011;7004;48.206;16.402;2022-11-28T08:13:38;26.37;;;15.03;;
13868;SDS011;7004;48.206;16.402;2022-11-28T08:16:06;28.23;;;15.83;;
13868;SDS011;7004;48.206;16.402;2022-11-28T08:18:43;27.40;;;15.37;;
13868;SDS011;7004;48.206;16.402;2022-11-28T08:23:49;24.40;;;14.27;;
13868;SDS011;7004;48.206;16.402;2022-11-28T08:26:19;24.57;;;15.63;;
13868;SDS011;7004;48.206;16.402;2022-11-28T08:28:49;25.17;;;15.17;;
13868;SDS011;7004;48.206;16.402;2022-11-28T08:31:17;29.07;;;15.40;;
13868;SDS011;7004;48.206;16.402;2022-11-28T08:33:50;26.87;;;15.27;;
13868;SDS011;7004;48.206;16.402;2022-11-28T08:36:18;27.43;;;15.93;;
13868;SDS011;7004;48.206;16.402;2022-11-28T08:38:45;26.50;;;15.77;;
13868;SDS011;7004;48.206;16.402;2022-11-28T08:41:18;23.80;;;15.77;;
13868;SDS011;7004;48.206;16.402;2022-11-28T08:43:48;25.07;;;14.13;;
13868;SDS011;7004;48.206;16.402;2022-11-28T08:46:16;23.27;;;14.60;;
13868;SDS011;7004;48.206;16.402;2022-11-28T08:48:47;22.47;;;14.27;;
13868;SDS011;7004;48.206;16.402;2022-11-28T08:51:17;23.40;;;13.77;;
13868;SDS011;7004;48.206;16.402;2022-11-28T08:53:50;23.53;;;14.47;;
13868;SDS011;7004;48.206;16.402;2022-11-28T08:56:17;25.27;;;14.47;;
13868;SDS011;7004;48.206;16.402;2022-11-28T08:58:43;24.70;;;16.10;;
13868;SDS011;7004;48.206;16.402;2022-11-28T09:01:20;26.30;;;16.30;;
13868;SDS011;7004;48.206;16.402;2022-11-28T09:03:49;23.70;;;14.13;;
13868;SDS011;7004;48.206;16.402;2022-11-28T09:06:17;27.00;;;16.17;;
13868;SDS011;7004;48.206;16.402;2022-11-28T09:08:44;26.83;;;15.47;;
13868;SDS011;7004;48.206;16.402;2022-11-28T09:11:12;22.37;;;14.57;;
13868;SDS011;7004;48.206;16.402;2022-11-28T09:13:44;25.80;;;16.03;;
13868;SDS011;7004;48.206;16.402;2022-11-28T09:16:11;23.40;;;14.80;;
13868;SDS011;7004;48.206;16.402;2022-11-28T09:18:39;23.10;;;13.80;;
13868;SDS011;7004;48.206;16.402;2022-11-28T09:21:06;22.60;;;14.13;;
13868;SDS011;7004;48.206;16.402;2022-11-28T09:23:36;23.97;;;14.83;;
13868;SDS011;7004;48.206;16.402;2022-11-28T09:26:08;21.43;;;14.00;;
13868;SDS011;7004;48.206;16.402;2022-11-28T09:28:40;23.53;;;14.00;;
13868;SDS011;7004;48.206;16.402;2022-11-28T09:31:07;23.80;;;13.17;;
13868;SDS011;7004;48.206;16.402;2022-11-28T09:33:34;23.30;;;14.43;;
13868;SDS011;7004;48.206;16.402;2022-11-28T09:36:04;25.37;;;14.40;;
13868;SDS011;7004;48.206;16.402;2022-11-28T09:38:36;22.90;;;14.70;;
13868;SDS011;7004;48.206;16.402;2022-11-28T09:41:03;22.63;;;15.07;;
13868;SDS011;7004;48.206;16.402;2022-11-28T09:43:48;22.13;;;13.73;;
13868;SDS011;7004;48.206;16.402;2022-11-28T09:46:18;23.50;;;14.70;;
13868;SDS011;7004;48.206;16.402;2022-11-28T09:48:53;21.93;;;14.43;;
13868;SDS011;7004;48.206;16.402;2022-11-28T09:51:32;22.87;;;16.27;;
13868;SDS011;7004;48.206;16.402;2022-11-28T09:54:18;25.47;;;14.53;;
13868;SDS011;7004;48.206;16.402;2022-11-28T09:57:25;23.03;;;14.10;;
13868;SDS011;7004;48.206;16.402;2022-11-28T09:59:57;23.80;;;15.57;;
13868;SDS011;7004;48.206;16.402;2022-11-28T10:02:28;24.40;;;15.00;;
13868;SDS011;7004;48.206;16.402;2022-11-28T10:08:04;21.90;;;14.03;;
13868;SDS011;7004;48.206;16.402;2022-11-28T10:11:02;21.50;;;14.03;;
13868;SDS011;7004;48.206;16.402;2022-11-28T10:26:03;21.90;;;14.60;;
13868;SDS011;7004;48.206;16.402;2022-11-28T10:28:56;20.93;;;13.50;;
13868;SDS011;7004;48.206;16.402;2022-11-28T10:31:38;19.40;;;12.77;;
13868;SDS011;7004;48.206;16.402;2022-11-28T10:39:51;19.33;;;12.73;;
13868;SDS011;7004;48.206;16.402;2022-11-28T10:57:26;24.30;;;15.87;;
13868;SDS011;7004;48.206;16.402;2022-11-28T11:00:00;22.67;;;13.87;;
13868;SDS011;7004;48.206;16.402;2022-11-28T11:05:19;22.60;;;14.07;;
13868;SDS011;7004;48.206;16.402;2022-11-28T11:07:58;22.70;;;13.93;;
13868;SDS011;7004;48.206;16.402;2022-11-28T11:10:45;23.03;;;14.53;;
13868;SDS011;7004;48.206;16.402;2022-11-28T11:14:02;22.07;;;14.27;;
13868;SDS011;7004;48.206;16.402;2022-11-28T11:16:51;26.23;;;13.77;;
13868;SDS011;7004;48.206;16.402;2022-11-28T11:19:28;21.60;;;13.77;;
13868;SDS011;7004;48.206;16.402;2022-11-28T11:22:03;25.00;;;14.13;;
13868;SDS011;7004;48.206;16.402;2022-11-28T11:27:37;24.13;;;14.47;;
13868;SDS011;7004;48.206;16.402;2022-11-28T11:30:14;23.70;;;14.43;;
13868;SDS011;7004;48.206;16.402;2022-11-28T11:32:53;23.13;;;14.27;;
13868;SDS011;7004;48.206;16.402;2022-11-28T11:35:24;23.77;;;12.97;;
13868;SDS011;7004;48.206;16.402;2022-11-28T11:38:12;23.60;;;14.20;;
13868;SDS011;7004;48.206;16.402;2022-11-28T11:40:52;23.93;;;13.47;;
13868;SDS011;7004;48.206;16.402;2022-11-28T11:43:29;24.93;;;15.27;;
13868;SDS011;7004;48.206;16.402;2022-11-28T11:46:18;26.80;;;15.50;;
13868;SDS011;7004;48.206;16.402;2022-11-28T11:48:45;25.93;;;14.87;;
13868;SDS011;7004;48.206;16.402;2022-11-28T11:53:47;26.20;;;15.50;;
13868;SDS011;7004;48.206;16.402;2022-11-28T11:56:29;22.17;;;14.50;;
13868;SDS011;7004;48.206;16.402;2022-11-28T11:59:02;25.93;;;16.27;;
13868;SDS011;7004;48.206;16.402;2022-11-28T12:01:39;22.93;;;14.13;;
13868;SDS011;7004;48.206;16.402;2022-11-28T12:04:13;26.90;;;15.77;;
13868;SDS011;7004;48.206;16.402;2022-11-28T12:06:51;30.20;;;15.10;;
13868;SDS011;7004;48.206;16.402;2022-11-28T12:09:40;22.20;;;14.60;;
13868;SDS011;7004;48.206;16.402;2022-11-28T12:14:42;29.57;;;15.60;;
13868;SDS011;7004;48.206;16.402;2022-11-28T12:26:38;22.70;;;14.47;;
13868;SDS011;7004;48.206;16.402;2022-11-28T12:29:34;24.20;;;14.10;;
13868;SDS011;7004;48.206;16.402;2022-11-28T12:43:52;27.97;;;15.77;;
13868;SDS011;7004;48.206;16.402;2022-11-28T12:46:26;26.87;;;14.60;;
13868;SDS011;7004;48.206;16.402;2022-11-28T12:49:18;25.47;;;15.13;;
13868;SDS011;7004;48.206;16.402;2022-11-28T13:00:45;28.33;;;15.10;;
13868;SDS011;7004;48.206;16.402;2022-11-28T13:03:37;27.53;;;15.93;;
13868;SDS011;7004;48.206;16.402;2022-11-28T13:14:55;28.90;;;16.73;;
13868;SDS011;7004;48.206;16.402;2022-11-28T13:20:33;24.83;;;14.93;;
13868;SDS011;7004;48.206;16.402;2022-11-28T13:23:32;25.83;;;15.83;;
13868;SDS011;7004;48.206;16.402;2022-11-28T13:26:44;29.03;;;16.80;;
13868;SDS011;7004;48.206;16.402;2022-11-28T13:34:39;27.97;;;16.00;;
13868;SDS011;7004;48.206;16.402;2022-11-28T13:45:31;29.13;;;15.90;;
13868;SDS011;7004;48.206;16.402;2022-11-28T13:49:02;25.47;;;14.30;;
13868;SDS011;7004;48.206;16.402;2022-11-28T13:51:20;26.10;;;15.50;;
13868;SDS011;7004;48.206;16.402;2022-11-28T13:56:43;25.77;;;15.80;;
13868;SDS011;7004;48.206;16.402;2022-11-28T13:59:15;26.37;;;16.20;;
13868;SDS011;7004;48.206;16.402;2022-11-28T14:01:46;27.30;;;16.30;;
13868;SDS011;7004;48.206;16.402;2022-11-28T14:04:21;27.43;;;15.80;;
13868;SDS011;7004;48.206;16.402;2022-11-28T14:06:49;29.57;;;16.83;;
13868;SDS011;7004;48.206;16.402;2022-11-28T14:15:13;26.93;;;15.33;;
13868;SDS011;7004;48.206;16.402;2022-11-28T14:27:30;32.27;;;17.57;;
13868;SDS011;7004;48.206;16.402;2022-11-28T14:30:00;29.83;;;16.20;;
13868;SDS011;7004;48.206;16.402;2022-11-28T14:35:03;28.87;;;15.73;;
13868;SDS011;7004;48.206;16.402;2022-11-28T14:37:52;29.10;;;16.73;;
13868;SDS011;7004;48.206;16.402;2022-11-28T14:54:18;32.10;;;19.73;;
13868;SDS011;7004;48.206;16.402;2022-11-28T14:57:21;31.23;;;18.60;;
13868;SDS011;7004;48.206;16.402;2022-11-28T14:59:58;27.83;;;16.57;;
13868;SDS011;7004;48.206;16.402;2022-11-28T15:02:36;30.87;;;16.83;;
13868;SDS011;7004;48.206;16.402;2022-11-28T15:08:15;31.20;;;18.00;;
13868;SDS011;7004;48.206;16.402;2022-11-28T15:14:39;30.33;;;17.10;;
13868;SDS011;7004;48.206;16.402;2022-11-28T15:17:09;32.83;;;17.43;;
13868;SDS011;7004;48.206;16.402;2022-11-28T15:19:39;35.77;;;17.40;;
13868;SDS011;7004;48.206;16.402;2022-11-28T15:22:37;32.07;;;17.47;;
13868;SDS011;7004;48.206;16.402;2022-11-28T15:27:45;32.00;;;17.50;;
13868;SDS011;7004;48.206;16.402;2022-11-28T15:30:16;30.27;;;17.67;;
13868;SDS011;7004;48.206;16.402;2022-11-28T15:32:47;29.23;;;17.50;;
13868;SDS011;7004;48.206;16.402;2022-11-28T15:35:13;36.50;;;19.67;;
13868;SDS011;7004;48.206;16.402;2022-11-28T15:37:46;33.47;;;17.60;;
13868;SDS011;7004;48.206;16.402;2022-11-28T15:40:20;33.43;;;18.90;;
13868;SDS011;7004;48.206;16.402;2022-11-28T15:43:00;31.53;;;18.73;;
13868;SDS011;7004;48.206;16.402;2022-11-28T15:45:32;32.70;;;18.47;;
13868;SDS011;7004;48.206;16.402;2022-11-28T15:47:59;32.00;;;18.77;;
13868;SDS011;7004;48.206;16.402;2022-11-28T15:50:27;33.57;;;19.37;;
13868;SDS011;7004;48.206;16.402;2022-11-28T15:52:59;37.40;;;19.60;;
13868;SDS011;7004;48.206;16.402;2022-11-28T15:55:41;38.67;;;20.67;;
13868;SDS011;7004;48.206;16.402;2022-11-28T16:00:55;34.70;;;20.33;;
13868;SDS011;7004;48.206;16.402;2022-11-28T16:03:33;38.50;;;19.67;;
13868;SDS011;7004;48.206;16.402;2022-11-28T16:06:26;33.80;;;18.07;;
13868;SDS011;7004;48.206;16.402;2022-11-28T16:08:57;38.63;;;21.93;;
13868;SDS011;7004;48.206;16.402;2022-11-28T16:11:28;36.17;;;21.13;;
13868;SDS011;7004;48.206;16.402;2022-11-28T16:13:57;37.93;;;20.07;;
13868;SDS011;7004;48.206;16.402;2022-11-28T16:16:31;38.90;;;20.73;;
13868;SDS011;7004;48.206;16.402;2022-11-28T16:19:02;34.20;;;20.97;;
13868;SDS011;7004;48.206;16.402;2022-11-28T16:24:16;39.40;;;21.17;;
13868;SDS011;7004;48.206;16.402;2022-11-28T16:26:58;40.57;;;21.43;;
13868;SDS011;7004;48.206;16.402;2022-11-28T16:29:30;36.90;;;21.00;;
13868;SDS011;7004;48.206;16.402;2022-11-28T16:32:06;41.10;;;21.37;;
13868;SDS011;7004;48.206;16.402;2022-11-28T16:34:45;42.80;;;22.17;;
13868;SDS011;7004;48.206;16.402;2022-11-28T16:37:32;39.50;;;22.30;;
13868;SDS011;7004;48.206;16.402;2022-11-28T16:42:37;36.07;;;21.73;;
13868;SDS011;7004;48.206;16.402;2022-11-28T16:45:17;39.00;;;20.17;;
13868;SDS011;7004;48.206;16.402;2022-11-28T16:48:03;35.73;;;18.97;;
13868;SDS011;7004;48.206;16.402;2022-11-28T16:50:38;33.37;;;19.20;;
13868;SDS011;7004;48.206;16.402;2022-11-28T16:53:41;36.87;;;20.47;;
13868;SDS011;7004;48.206;16.402;2022-11-28T17:01:44;36.17;;;19.13;;
13868;SDS011;7004;48.206;16.402;2022-11-28T17:04:23;34.77;;;19.13;;
13868;SDS011;7004;48.206;16.402;2022-11-28T17:06:54;32.70;;;19.90;;
13868;SDS011;7004;48.206;16.402;2022-11-28T17:09:29;29.33;;;17.87;;
13868;SDS011;7004;48.206;16.402;2022-11-28T17:12:01;31.53;;;18.97;;
13868;SDS011;7004;48.206;16.402;2022-11-28T17:14:32;30.57;;;18.27;;
13868;SDS011;7004;48.206;16.402;2022-11-28T17:16:59;30.07;;;19.10;;
13868;SDS011;7004;48.206;16.402;2022-11-28T17:19:30;30.23;;;18.07;;
13868;SDS011;7004;48.206;16.402;2022-11-28T17:21:59;31.00;;;18.70;;
13868;SDS011;7004;48.206;16.402;2022-11-28T17:24:34;30.47;;;18.53;;
13868;SDS011;7004;48.206;16.402;2022-11-28T17:27:01;29.57;;;18.83;;
13868;SDS011;7004;48.206;16.402;2022-11-28T17:29:28;29.43;;;19.33;;
13868;SDS011;7004;48.206;16.402;2022-11-28T17:31:55;31.53;;;18.70;;
13868;SDS011;7004;48.206;16.402;2022-11-28T17:34:27;28.27;;;18.77;;
13868;SDS011;7004;48.206;16.402;2022-11-28T17:36:56;29.20;;;18.10;;
13868;SDS011;7004;48.206;16.402;2022-11-28T17:39:25;35.77;;;18.90;;
13868;SDS011;7004;48.206;16.402;2022-11-28T17:41:52;32.23;;;16.73;;
13868;SDS011;7004;48.206;16.402;2022-11-28T17:46:50;33.50;;;19.73;;
13868;SDS011;7004;48.206;16.402;2022-11-28T17:49:19;29.60;;;18.77;;
13868;SDS011;7004;48.206;16.402;2022-11-28T17:51:47;32.57;;;17.87;;
13868;SDS011;7004;48.206;16.402;2022-11-28T17:54:15;33.00;;;19.53;;
13868;SDS011;7004;48.206;16.402;2022-11-28T17:56:43;33.53;;;20.03;;
13868;SDS011;7004;48.206;16.402;2022-11-28T17:59:14;31.87;;;18.43;;
13868;SDS011;7004;48.206;16.402;2022-11-28T18:01:44;29.93;;;17.30;;
13868;SDS011;7004;48.206;16.402;2022-11-28T18:04:11;32.07;;;18.17;;
13868;SDS011;7004;48.206;16.402;2022-11-28T18:06:41;30.57;;;18.13;;
13868;SDS011;7004;48.206;16.402;2022-11-28T18:09:10;29.67;;;18.17;;
13868;SDS011;7004;48.206;16.402;2022-11-28T18:11:37;29.90;;;18.70;;
13868;SDS011;7004;48.206;16.402;2022-11-28T18:14:05;33.23;;;19.17;;
13868;SDS011;7004;48.206;16.402;2022-11-28T18:16:32;32.57;;;18.93;;
13868;SDS011;7004;48.206;16.402;2022-11-28T18:19:04;29.73;;;18.93;;
13868;SDS011;7004;48.206;16.402;2022-11-28T18:21:31;30.97;;;19.30;;
13868;SDS011;7004;48.206;16.402;2022-11-28T18:23:58;32.73;;;19.93;;
13868;SDS011;7004;48.206;16.402;2022-11-28T18:26:26;33.13;;;20.63;;
13868;SDS011;7004;48.206;16.402;2022-11-28T18:28:54;34.87;;;21.03;;
13868;SDS011;7004;48.206;16.402;2022-11-28T18:31:22;34.70;;;20.63;;
13868;SDS011;7004;48.206;16.402;2022-11-28T18:33:52;31.60;;;19.80;;
13868;SDS011;7004;48.206;16.402;2022-11-28T18:36:23;33.50;;;21.17;;
13868;SDS011;7004;48.206;16.402;2022-11-28T18:38:59;33.23;;;21.63;;